National Weather Service Raw Text Product

Displaying AFOS PIL: TAFMCW Received: 2017-12-07 05:29 UTC


045 
FTUS43 KDMX 070529
TAFMCW
TAF
KMCW 070529Z 0706/0806 32019G25KT P6SM VCSH OVC050
     FM070800 32019G25KT P6SM OVC060
     FM071200 30014G22KT P6SM SCT250
     FM072300 27009KT P6SM SCT150=